Maynard, IA (50655)

9:32 AM CDT on July 12, 2014 (GMT -0500)
Maplewood Dr (KIAOELWE2) Elev 1135 ft | 42.69 °N, 91.91 °W | Change Station

Current weather conditions updated 5 seconds ago

Clear
Clear
73.6 °F
Feels Like 71 °F
N
0.7
Wind Variable Wind from WSW
Gusts 1.1 mph

Today is forecast to be Cooler than yesterday. Thunderstorms.

Today
High -- | Low -- °F
--% Chance of Precip.
Yesterday
High -- | Low -- °F
Precip. -- in
5:40 AM 8:45 PM
Full, 100% visible
Pressure 30.00 in
Visibility 10.0 miles
Clouds Clear
Heat Index 71 °F
Dew Point 72 °F
Humidity 93%
Rainfall 0.14 in
Snow Depth Not available.
UV 4 out of 12
Pollen .50 out of 12
Air Quality Not available.
Flu Activity Sporadic
METAR KOLZ 121415Z AUTO 00000KT 10SM CLR 23/23 A3000 RMK AO2

More Conditions Fewer Conditions

Pressure 30.00 in
Visibility 10.0 miles
Clouds Clear
Heat Index 71 °F
Dew Point 72 °F
Humidity 93%
Rainfall 0.14 in
Snow Depth Not available.
UV 4 out of 12
Pollen .50 out of 12
Air Quality Not available.
Flu Activity Sporadic
METAR KOLZ 121415Z AUTO 00000KT 10SM CLR 23/23 A3000 RMK AO2

More Conditions Fewer Conditions

10-Day Weather Forecast

Almanac

Astronomy

Jul. 12, 2014 Rise Set
Actual Time 5:40 AM CDT 8:45 PM CDT
Civil Twilight 5:06 AM CDT 9:19 PM CDT
Nautical Twilight 4:22 AM CDT 10:03 PM CDT
Astronomical Twilight 3:30 AM CDT 10:55 PM CDT
Moon 8:45 PM CDT 6:02 AM CDT
Length of Visible Light 16h 13m
Length of Day
15h 05m
Tomorrow will be 1m 22s shorter.
Full, 100% of the Moon is Illuminated
Today
Full
Jul 18
Last Quarter
Jul 26
New
Aug 3
First Quarter
Aug 10
Full

Today's Extremes

State Highs State Lows

Community

WunderPhotos

Upload Photos

1,732,842 photos uploaded!

WunderBlogs® & News

Nearby

Snow Depth

Station Depth Elevation
No new snow has been reported.

Earthquake Activity

City Distance Mag. Time & Date
No recent earthquake activity has been reported nearby.
Minimum magnitude displayed is 2.5.

Coastal Water Temperatures

Place Temperature
No Stations Reporting

Nearby Weather Stations

Station Location Temp. Heat Index Dew Point Humidity Wind Precip. Elev Updated Type
Maplewood Dr, Oelwein, IA 73.6 °F 71 °F 72 °F 93% WSW  at  0.7 mph 0.00 in / hr 1135 ft 9:32 AM CDT Rapid Fire
Hawkeye, IA 72.5 °F - 70 °F 92% NNE  at  0.0 mph 0.00 in / hr 1161 ft 9:32 AM CDT Rapid Fire
Radio Station N0VTZ; 5 Mi. North of, Sumner, IA 72.3 °F 70 °F -34 °F - North  at  0.0 mph 0.00 in / hr 1145 ft 9:32 AM CDT Rapid Fire
Strawberry Point, IA 71.2 °F - 70 °F 96% North  at  3.0 mph 0.00 in / hr 1220 ft 9:28 AM CDT Normal
Northridge Addition, Independence, IA 74.6 °F 72 °F 74 °F 97% SW  at  3.1 mph 0.00 in / hr 929 ft 9:32 AM CDT Rapid Fire
Terrace Drive SE, Independence, IA 72.1 °F - 71 °F 97% NW  at  0.0 mph 0.00 in / hr 940 ft 9:32 AM CDT Rapid Fire

Show More Stations Show Fewer Stations